Terminal Aerodrome Forecast
Issued by NWS Albany, NY

Home | Current Version | Previous Version | Text Only | Print | Product List | Glossary On
Versions: 1 2 3 4 5 6 7 8 9 10 11 12 13 14
000
FTUS41 KALY 210523
TAFPOU
TAF
KPOU 210523Z 2106/2206 00000KT P6SM BKN250
     FM211100 00000KT P6SM BKN250
     FM211500 29006KT P6SM FEW250
     FM220500 00000KT P6SM SCT250=

USA.gov is the U.S. government's official web portal to all federal, state and local government web resources and services.